createdAt,value
2023-04-04T00:01:29.320Z,100447.63
2023-04-04T00:04:36.751Z,100449.59
2023-04-04T00:07:39.329Z,100450.25
2023-04-04T00:10:43.219Z,100452.38
2023-04-04T00:14:06.072Z,100466.00
2023-04-04T00:17:10.757Z,100467.56
2023-04-04T00:20:17.640Z,100469.03
2023-04-04T00:23:21.697Z,100471.91
2023-04-04T00:26:26.813Z,100471.22
2023-04-04T00:29:50.122Z,100469.03
2023-04-04T00:32:54.283Z,100467.56
2023-04-04T00:35:57.506Z,100458.47
2023-04-04T00:39:08.982Z,100463.22
2023-04-04T00:42:14.112Z,100460.09
2023-04-04T00:45:41.446Z,100469.53
2023-04-04T00:48:48.963Z,100468.03
2023-04-04T00:51:55.420Z,100473.69
2023-04-04T00:55:00.324Z,100463.25
2023-04-04T00:58:06.605Z,100450.84
2023-04-04T01:01:13.428Z,100445.25
2023-04-04T01:04:19.102Z,100436.87
2023-04-04T01:07:22.728Z,100428.84
2023-04-04T01:10:25.886Z,100421.59
2023-04-04T01:13:49.338Z,100424.00
2023-04-04T01:17:14.873Z,100421.66
2023-04-04T01:20:24.795Z,100418.84
2023-04-04T01:24:04.786Z,100410.22
2023-04-04T01:27:11.159Z,100404.62
2023-04-04T01:30:16.585Z,100387.03
2023-04-04T01:33:46.488Z,100390.16
2023-04-04T01:37:19.169Z,100382.84
2023-04-04T01:40:27.243Z,100386.53
2023-04-04T01:43:33.420Z,100380.50
2023-04-04T01:46:56.538Z,100369.03
2023-04-04T01:50:20.221Z,100378.28
2023-04-04T01:53:28.346Z,100363.78
2023-04-04T01:56:32.907Z,100358.97
2023-04-04T01:59:44.105Z,100353.75
2023-04-04T02:02:46.942Z,100348.50
2023-04-04T02:05:50.860Z,100354.16
2023-04-04T02:08:53.896Z,100348.50
2023-04-04T02:12:00.032Z,100340.47
2023-04-04T02:15:11.046Z,100338.47
2023-04-04T02:18:15.021Z,100337.28
2023-04-04T02:21:18.442Z,100340.91
2023-04-04T02:25:23.009Z,100332.84
2023-04-04T02:28:28.891Z,100323.59
2023-04-04T02:31:33.672Z,100325.63
2023-04-04T02:34:41.579Z,100332.06
2023-04-04T02:37:47.693Z,100320.00
2023-04-04T02:40:53.507Z,100324.81
2023-04-04T02:44:23.356Z,100325.59
2023-04-04T02:47:26.750Z,100327.25
2023-04-04T02:50:31.441Z,100322.44
2023-04-04T02:53:55.965Z,100322.00
2023-04-04T02:57:43.426Z,100329.06
2023-04-04T03:00:54.124Z,100341.53
2023-04-04T03:04:19.590Z,100344.75
2023-04-04T03:07:23.616Z,100345.37
2023-04-04T03:10:32.437Z,100356.63
2023-04-04T03:13:35.746Z,100355.81
2023-04-04T03:16:59.608Z,100356.63
2023-04-04T03:20:15.210Z,100362.91
2023-04-04T03:23:21.403Z,100362.28
2023-04-04T03:26:24.646Z,100364.66
2023-04-04T03:29:48.748Z,100359.84
2023-04-04T03:32:53.519Z,100355.81
2023-04-04T03:36:00.578Z,100354.00
2023-04-04T03:39:03.636Z,100358.25
2023-04-04T03:42:15.842Z,100363.88
2023-04-04T03:45:26.619Z,100359.06
2023-04-04T03:48:31.912Z,100364.47
2023-04-04T03:51:34.900Z,100352.59
2023-04-04T03:54:41.767Z,100357.03
2023-04-04T03:57:44.832Z,100361.28
2023-04-04T04:00:49.100Z,100351.38
2023-04-04T04:03:52.584Z,100363.19
2023-04-04T04:06:55.828Z,100354.19
2023-04-04T04:09:59.365Z,100348.75
2023-04-04T04:13:02.882Z,100352.97
2023-04-04T04:16:06.826Z,100349.78
2023-04-04T04:19:10.899Z,100344.53
2023-04-04T04:22:14.670Z,100339.94
2023-04-04T04:25:22.418Z,100345.13
2023-04-04T04:28:33.655Z,100342.13
2023-04-04T04:31:39.419Z,100330.06
2023-04-04T04:34:42.929Z,100339.31
2023-04-04T04:37:45.736Z,100337.31
2023-04-04T04:41:10.973Z,100333.28
2023-04-04T04:44:14.308Z,100329.66
2023-04-04T04:47:17.945Z,100332.69
2023-04-04T04:50:21.307Z,100339.34
2023-04-04T04:53:25.315Z,100350.41
2023-04-04T04:56:28.255Z,100339.94
2023-04-04T04:59:37.244Z,100346.78
2023-04-04T05:02:40.745Z,100335.87
2023-04-04T05:05:44.373Z,100340.12
2023-04-04T05:08:47.767Z,100342.69
2023-04-04T05:12:04.094Z,100338.50
2023-04-04T15:14:20.255Z,100149.31
2023-04-04T15:17:23.299Z,100150.84
2023-04-04T15:20:26.650Z,100147.97
2023-04-04T15:23:29.857Z,100149.75
2023-04-04T15:26:32.804Z,100149.81
2023-04-04T15:29:36.300Z,100152.56
2023-04-04T15:32:59.085Z,100157.88
2023-04-04T15:36:02.204Z,100153.09
2023-04-04T15:39:05.011Z,100149.37
2023-04-04T15:42:07.999Z,100161.31
2023-04-04T15:45:12.065Z,100152.56
2023-04-04T15:48:15.631Z,100159.47
2023-04-04T15:51:18.516Z,100166.16
2023-04-04T15:54:21.593Z,100165.91
2023-04-04T15:57:24.522Z,100172.81
2023-04-04T16:00:28.960Z,100170.94
2023-04-04T16:03:32.918Z,100177.00
2023-04-04T16:06:37.827Z,100179.13
2023-04-04T16:09:43.484Z,100177.28
2023-04-04T16:12:46.262Z,100182.31
2023-04-04T16:15:49.655Z,100190.81
2023-04-04T16:18:52.312Z,100195.78
2023-04-04T16:21:55.459Z,100197.44
2023-04-04T16:24:58.241Z,100197.69
2023-04-04T16:28:01.395Z,100197.88
2023-04-04T16:31:04.493Z,100199.00
2023-04-04T16:34:07.541Z,100199.78
2023-04-04T16:37:12.049Z,100209.81
2023-04-04T16:40:15.549Z,100212.47
2023-04-04T16:43:18.325Z,100202.41
2023-04-04T16:46:21.816Z,100213.00
2023-04-04T16:49:24.615Z,100214.56
2023-04-04T16:52:27.633Z,100217.47
2023-04-04T16:55:33.569Z,100224.50
2023-04-04T16:58:36.714Z,100218.09
2023-04-04T17:01:39.528Z,100221.75
2023-04-04T17:04:43.761Z,100221.25
2023-04-04T17:07:47.293Z,100235.44
2023-04-04T17:10:51.428Z,100234.03
2023-04-04T17:13:54.770Z,100234.28
2023-04-04T17:17:00.542Z,100235.34
2023-04-04T17:20:05.275Z,100241.00
2023-04-04T17:23:08.556Z,100245.47
2023-04-04T17:26:11.604Z,100242.72
2023-04-04T17:29:27.084Z,100250.31
2023-04-04T17:32:31.408Z,100255.19
2023-04-04T17:35:34.816Z,100267.41
2023-04-04T17:38:40.207Z,100273.72
